sensor_id;sensor_type;location;lat;lon;timestamp;temperature;humidity
80540;DHT22;69869;48.036;15.780;2023-07-30T00:01:40;21.80;88.40
80540;DHT22;69869;48.036;15.780;2023-07-30T00:04:06;21.80;88.70
80540;DHT22;69869;48.036;15.780;2023-07-30T00:06:31;21.80;88.40
80540;DHT22;69869;48.036;15.780;2023-07-30T00:08:57;21.80;88.40
80540;DHT22;69869;48.036;15.780;2023-07-30T00:11:23;21.80;88.40
80540;DHT22;69869;48.036;15.780;2023-07-30T00:13:48;21.90;88.60
80540;DHT22;69869;48.036;15.780;2023-07-30T00:16:14;21.90;88.70
80540;DHT22;69869;48.036;15.780;2023-07-30T00:18:40;21.90;88.90
80540;DHT22;69869;48.036;15.780;2023-07-30T00:21:05;21.90;88.60
80540;DHT22;69869;48.036;15.780;2023-07-30T00:23:31;21.90;89.40
80540;DHT22;69869;48.036;15.780;2023-07-30T00:25:56;21.80;88.40
80540;DHT22;69869;48.036;15.780;2023-07-30T00:28:22;21.80;88.50
80540;DHT22;69869;48.036;15.780;2023-07-30T00:30:51;21.80;88.70
80540;DHT22;69869;48.036;15.780;2023-07-30T00:33:16;21.90;88.90
80540;DHT22;69869;48.036;15.780;2023-07-30T00:35:42;21.90;88.70
80540;DHT22;69869;48.036;15.780;2023-07-30T00:38:07;21.90;88.50
80540;DHT22;69869;48.036;15.780;2023-07-30T00:40:36;21.90;88.90
80540;DHT22;69869;48.036;15.780;2023-07-30T00:43:04;21.90;88.70
80540;DHT22;69869;48.036;15.780;2023-07-30T00:45:29;21.90;88.90
80540;DHT22;69869;48.036;15.780;2023-07-30T00:47:55;21.90;88.90
80540;DHT22;69869;48.036;15.780;2023-07-30T00:50:21;21.90;88.50
80540;DHT22;69869;48.036;15.780;2023-07-30T00:52:46;21.90;88.60
80540;DHT22;69869;48.036;15.780;2023-07-30T00:55:13;21.90;88.50
80540;DHT22;69869;48.036;15.780;2023-07-30T00:57:41;21.80;88.80
80540;DHT22;69869;48.036;15.780;2023-07-30T01:00:08;21.90;88.80
80540;DHT22;69869;48.036;15.780;2023-07-30T01:02:36;21.90;88.90
80540;DHT22;69869;48.036;15.780;2023-07-30T01:05:02;21.90;88.90
80540;DHT22;69869;48.036;15.780;2023-07-30T01:07:30;21.90;88.90
80540;DHT22;69869;48.036;15.780;2023-07-30T01:09:56;21.80;88.80
80540;DHT22;69869;48.036;15.780;2023-07-30T01:12:22;21.90;88.90
80540;DHT22;69869;48.036;15.780;2023-07-30T01:14:49;21.80;88.80
80540;DHT22;69869;48.036;15.780;2023-07-30T01:17:16;21.90;88.90
80540;DHT22;69869;48.036;15.780;2023-07-30T02:11:28;21.90;88.90
80540;DHT22;69869;48.036;15.780;2023-07-30T02:13:54;21.90;89.10
80540;DHT22;69869;48.036;15.780;2023-07-30T02:16:20;21.90;88.90
80540;DHT22;69869;48.036;15.780;2023-07-30T02:18:46;21.90;88.90
80540;DHT22;69869;48.036;15.780;2023-07-30T02:21:12;21.90;89.10
80540;DHT22;69869;48.036;15.780;2023-07-30T02:23:38;21.80;88.90
80540;DHT22;69869;48.036;15.780;2023-07-30T02:26:03;21.90;88.90
80540;DHT22;69869;48.036;15.780;2023-07-30T02:28:29;21.90;89.10
80540;DHT22;69869;48.036;15.780;2023-07-30T02:30:54;21.90;89.40
80540;DHT22;69869;48.036;15.780;2023-07-30T02:33:20;21.90;89.30
80540;DHT22;69869;48.036;15.780;2023-07-30T02:35:46;21.90;89.40
80540;DHT22;69869;48.036;15.780;2023-07-30T02:38:11;21.90;89.40
80540;DHT22;69869;48.036;15.780;2023-07-30T02:40:37;21.90;89.40
80540;DHT22;69869;48.036;15.780;2023-07-30T02:45:38;21.90;88.90
80540;DHT22;69869;48.036;15.780;2023-07-30T02:48:04;21.90;89.50
80540;DHT22;69869;48.036;15.780;2023-07-30T02:50:30;21.90;89.00
80540;DHT22;69869;48.036;15.780;2023-07-30T02:52:56;21.90;89.40
80540;DHT22;69869;48.036;15.780;2023-07-30T02:55:21;21.90;89.10
80540;DHT22;69869;48.036;15.780;2023-07-30T02:57:47;21.90;89.80
80540;DHT22;69869;48.036;15.780;2023-07-30T03:00:13;21.90;89.20
80540;DHT22;69869;48.036;15.780;2023-07-30T03:02:40;21.90;89.30
80540;DHT22;69869;48.036;15.780;2023-07-30T03:05:06;21.90;90.10
80540;DHT22;69869;48.036;15.780;2023-07-30T03:07:31;21.90;89.60
80540;DHT22;69869;48.036;15.780;2023-07-30T03:09:57;21.90;89.60
80540;DHT22;69869;48.036;15.780;2023-07-30T03:12:23;21.90;89.70
80540;DHT22;69869;48.036;15.780;2023-07-30T03:14:48;21.90;89.70
80540;DHT22;69869;48.036;15.780;2023-07-30T03:17:14;21.90;89.60
80540;DHT22;69869;48.036;15.780;2023-07-30T03:19:40;21.90;89.60
80540;DHT22;69869;48.036;15.780;2023-07-30T03:22:05;21.90;89.70
80540;DHT22;69869;48.036;15.780;2023-07-30T03:24:31;21.90;89.50
80540;DHT22;69869;48.036;15.780;2023-07-30T03:26:57;21.90;89.60
80540;DHT22;69869;48.036;15.780;2023-07-30T03:29:22;21.90;89.50
80540;DHT22;69869;48.036;15.780;2023-07-30T03:31:48;21.90;89.40
80540;DHT22;69869;48.036;15.780;2023-07-30T03:34:13;21.90;89.40
80540;DHT22;69869;48.036;15.780;2023-07-30T03:36:39;21.90;89.50
80540;DHT22;69869;48.036;15.780;2023-07-30T03:39:05;21.90;89.50
80540;DHT22;69869;48.036;15.780;2023-07-30T03:41:31;21.90;88.90
80540;DHT22;69869;48.036;15.780;2023-07-30T03:43:56;21.90;89.40
80540;DHT22;69869;48.036;15.780;2023-07-30T03:46:22;21.90;89.40
80540;DHT22;69869;48.036;15.780;2023-07-30T03:48:47;21.90;89.20
80540;DHT22;69869;48.036;15.780;2023-07-30T03:51:13;21.90;89.40
80540;DHT22;69869;48.036;15.780;2023-07-30T03:53:39;21.90;89.50
80540;DHT22;69869;48.036;15.780;2023-07-30T03:56:07;21.90;89.40
80540;DHT22;69869;48.036;15.780;2023-07-30T03:58:33;21.90;89.20
80540;DHT22;69869;48.036;15.780;2023-07-30T04:00:58;21.90;89.40
80540;DHT22;69869;48.036;15.780;2023-07-30T04:03:24;21.90;89.50
80540;DHT22;69869;48.036;15.780;2023-07-30T04:05:50;21.90;89.40
80540;DHT22;69869;48.036;15.780;2023-07-30T04:08:16;21.90;89.30
80540;DHT22;69869;48.036;15.780;2023-07-30T04:10:42;21.90;89.50
80540;DHT22;69869;48.036;15.780;2023-07-30T04:13:07;21.90;90.10
80540;DHT22;69869;48.036;15.780;2023-07-30T04:15:33;21.90;89.60
80540;DHT22;69869;48.036;15.780;2023-07-30T04:17:59;21.90;89.50
80540;DHT22;69869;48.036;15.780;2023-07-30T04:20:25;21.90;89.50
80540;DHT22;69869;48.036;15.780;2023-07-30T04:22:51;21.90;89.50
80540;DHT22;69869;48.036;15.780;2023-07-30T04:25:17;21.90;89.50
80540;DHT22;69869;48.036;15.780;2023-07-30T04:27:43;21.90;89.50
80540;DHT22;69869;48.036;15.780;2023-07-30T04:30:09;21.90;89.50
80540;DHT22;69869;48.036;15.780;2023-07-30T04:32:34;21.90;89.50
80540;DHT22;69869;48.036;15.780;2023-07-30T04:35:01;21.90;89.50
80540;DHT22;69869;48.036;15.780;2023-07-30T04:37:28;21.90;89.60
80540;DHT22;69869;48.036;15.780;2023-07-30T04:39:54;21.90;89.50
80540;DHT22;69869;48.036;15.780;2023-07-30T04:42:19;21.90;89.60
80540;DHT22;69869;48.036;15.780;2023-07-30T04:44:45;21.90;89.60
80540;DHT22;69869;48.036;15.780;2023-07-30T04:47:11;21.90;89.60
80540;DHT22;69869;48.036;15.780;2023-07-30T04:49:36;21.90;89.60
80540;DHT22;69869;48.036;15.780;2023-07-30T04:52:06;21.90;89.60
80540;DHT22;69869;48.036;15.780;2023-07-30T04:54:32;21.90;89.50
80540;DHT22;69869;48.036;15.780;2023-07-30T04:56:58;21.90;89.50
80540;DHT22;69869;48.036;15.780;2023-07-30T04:59:23;21.90;89.40
80540;DHT22;69869;48.036;15.780;2023-07-30T05:01:49;21.90;89.50
80540;DHT22;69869;48.036;15.780;2023-07-30T05:04:15;21.90;89.60
80540;DHT22;69869;48.036;15.780;2023-07-30T05:06:40;21.90;89.50
80540;DHT22;69869;48.036;15.780;2023-07-30T05:09:06;21.90;89.40
80540;DHT22;69869;48.036;15.780;2023-07-30T05:11:31;21.90;89.30
80540;DHT22;69869;48.036;15.780;2023-07-30T05:13:57;21.90;89.60
80540;DHT22;69869;48.036;15.780;2023-07-30T05:16:23;21.90;89.50
80540;DHT22;69869;48.036;15.780;2023-07-30T05:18:48;21.90;89.50
80540;DHT22;69869;48.036;15.780;2023-07-30T05:21:14;21.90;89.50
80540;DHT22;69869;48.036;15.780;2023-07-30T05:23:40;21.90;89.50
80540;DHT22;69869;48.036;15.780;2023-07-30T05:26:05;21.90;89.60
80540;DHT22;69869;48.036;15.780;2023-07-30T05:28:31;21.90;89.50
80540;DHT22;69869;48.036;15.780;2023-07-30T05:30:58;21.90;89.50
80540;DHT22;69869;48.036;15.780;2023-07-30T05:33:24;21.90;89.50
80540;DHT22;69869;48.036;15.780;2023-07-30T05:35:49;21.90;89.40
80540;DHT22;69869;48.036;15.780;2023-07-30T05:38:15;21.90;89.50
80540;DHT22;69869;48.036;15.780;2023-07-30T05:40:42;21.90;89.50
80540;DHT22;69869;48.036;15.780;2023-07-30T05:43:07;21.90;89.50
80540;DHT22;69869;48.036;15.780;2023-07-30T05:45:34;21.90;89.50
80540;DHT22;69869;48.036;15.780;2023-07-30T05:48:00;21.90;89.50
80540;DHT22;69869;48.036;15.780;2023-07-30T05:50:25;21.90;89.50
80540;DHT22;69869;48.036;15.780;2023-07-30T05:52:51;21.90;89.50
80540;DHT22;69869;48.036;15.780;2023-07-30T05:55:16;21.90;89.50
80540;DHT22;69869;48.036;15.780;2023-07-30T05:57:42;21.90;89.60
80540;DHT22;69869;48.036;15.780;2023-07-30T06:00:08;21.90;89.50
80540;DHT22;69869;48.036;15.780;2023-07-30T06:02:34;21.90;89.50
80540;DHT22;69869;48.036;15.780;2023-07-30T06:04:59;21.80;89.40
80540;DHT22;69869;48.036;15.780;2023-07-30T06:07:25;21.90;89.60
80540;DHT22;69869;48.036;15.780;2023-07-30T06:09:51;21.90;89.50
80540;DHT22;69869;48.036;15.780;2023-07-30T06:12:16;21.90;90.10
80540;DHT22;69869;48.036;15.780;2023-07-30T06:14:42;21.90;89.60
80540;DHT22;69869;48.036;15.780;2023-07-30T06:17:07;21.90;89.50
80540;DHT22;69869;48.036;15.780;2023-07-30T06:19:34;21.90;89.50
80540;DHT22;69869;48.036;15.780;2023-07-30T06:21:59;21.90;89.40
80540;DHT22;69869;48.036;15.780;2023-07-30T06:24:25;21.90;89.50
80540;DHT22;69869;48.036;15.780;2023-07-30T06:26:50;21.90;89.60
80540;DHT22;69869;48.036;15.780;2023-07-30T06:29:16;21.90;89.50
80540;DHT22;69869;48.036;15.780;2023-07-30T06:31:42;21.90;89.60
80540;DHT22;69869;48.036;15.780;2023-07-30T06:34:07;21.90;89.60
80540;DHT22;69869;48.036;15.780;2023-07-30T06:36:33;21.90;89.60
80540;DHT22;69869;48.036;15.780;2023-07-30T06:38:59;21.80;89.40
80540;DHT22;69869;48.036;15.780;2023-07-30T06:41:24;21.90;89.50
80540;DHT22;69869;48.036;15.780;2023-07-30T06:43:50;21.80;89.40
80540;DHT22;69869;48.036;15.780;2023-07-30T06:46:16;21.90;89.50
80540;DHT22;69869;48.036;15.780;2023-07-30T06:48:42;21.90;89.40
80540;DHT22;69869;48.036;15.780;2023-07-30T06:51:09;21.90;89.50
80540;DHT22;69869;48.036;15.780;2023-07-30T06:53:35;21.80;90.00
80540;DHT22;69869;48.036;15.780;2023-07-30T06:56:01;21.80;89.40
80540;DHT22;69869;48.036;15.780;2023-07-30T06:58:26;21.90;89.50
80540;DHT22;69869;48.036;15.780;2023-07-30T07:00:52;21.80;89.40
80540;DHT22;69869;48.036;15.780;2023-07-30T07:03:17;21.90;89.50
80540;DHT22;69869;48.036;15.780;2023-07-30T07:05:43;21.90;89.60
80540;DHT22;69869;48.036;15.780;2023-07-30T07:08:09;21.90;89.40
80540;DHT22;69869;48.036;15.780;2023-07-30T07:10:34;21.80;89.20
80540;DHT22;69869;48.036;15.780;2023-07-30T07:13:00;21.90;89.30
80540;DHT22;69869;48.036;15.780;2023-07-30T07:15:26;21.90;89.50
80540;DHT22;69869;48.036;15.780;2023-07-30T07:17:51;21.90;89.40
80540;DHT22;69869;48.036;15.780;2023-07-30T07:20:17;21.80;89.40
80540;DHT22;69869;48.036;15.780;2023-07-30T07:22:43;21.90;89.50
80540;DHT22;69869;48.036;15.780;2023-07-30T07:25:12;21.90;89.40
80540;DHT22;69869;48.036;15.780;2023-07-30T07:27:38;21.90;89.40
80540;DHT22;69869;48.036;15.780;2023-07-30T07:30:04;21.90;89.50
80540;DHT22;69869;48.036;15.780;2023-07-30T07:32:29;21.90;89.10
80540;DHT22;69869;48.036;15.780;2023-07-30T07:34:55;21.90;89.40
80540;DHT22;69869;48.036;15.780;2023-07-30T07:37:21;21.90;89.40
80540;DHT22;69869;48.036;15.780;2023-07-30T07:39:46;21.90;89.50
80540;DHT22;69869;48.036;15.780;2023-07-30T07:42:12;21.90;89.50
80540;DHT22;69869;48.036;15.780;2023-07-30T07:44:38;21.90;89.50
80540;DHT22;69869;48.036;15.780;2023-07-30T07:47:04;21.90;89.40
80540;DHT22;69869;48.036;15.780;2023-07-30T07:49:29;21.90;89.50
80540;DHT22;69869;48.036;15.780;2023-07-30T07:51:55;21.80;89.40
80540;DHT22;69869;48.036;15.780;2023-07-30T07:54:21;21.80;89.20
80540;DHT22;69869;48.036;15.780;2023-07-30T07:56:47;21.80;89.30
80540;DHT22;69869;48.036;15.780;2023-07-30T07:59:12;21.80;89.30
80540;DHT22;69869;48.036;15.780;2023-07-30T08:01:38;21.80;89.00
80540;DHT22;69869;48.036;15.780;2023-07-30T08:04:04;21.80;89.30
80540;DHT22;69869;48.036;15.780;2023-07-30T08:06:31;21.90;89.40
80540;DHT22;69869;48.036;15.780;2023-07-30T08:08:57;21.80;89.20
80540;DHT22;69869;48.036;15.780;2023-07-30T08:11:23;21.80;89.30
80540;DHT22;69869;48.036;15.780;2023-07-30T08:13:49;21.90;89.50
80540;DHT22;69869;48.036;15.780;2023-07-30T08:16:14;21.90;89.50
80540;DHT22;69869;48.036;15.780;2023-07-30T08:18:40;21.80;89.40
80540;DHT22;69869;48.036;15.780;2023-07-30T08:21:06;21.90;90.00
80540;DHT22;69869;48.036;15.780;2023-07-30T08:23:32;21.80;89.40
80540;DHT22;69869;48.036;15.780;2023-07-30T08:25:57;21.90;89.30
80540;DHT22;69869;48.036;15.780;2023-07-30T08:28:23;21.90;89.00
80540;DHT22;69869;48.036;15.780;2023-07-30T08:30:48;21.90;88.90
80540;DHT22;69869;48.036;15.780;2023-07-30T08:33:14;21.80;89.20
80540;DHT22;69869;48.036;15.780;2023-07-30T08:35:40;21.80;89.10
80540;DHT22;69869;48.036;15.780;2023-07-30T08:38:05;21.80;89.10
80540;DHT22;69869;48.036;15.780;2023-07-30T08:40:31;21.90;89.40
80540;DHT22;69869;48.036;15.780;2023-07-30T08:42:58;21.90;89.20
80540;DHT22;69869;48.036;15.780;2023-07-30T08:45:23;21.80;89.20
80540;DHT22;69869;48.036;15.780;2023-07-30T08:47:49;21.80;88.80
80540;DHT22;69869;48.036;15.780;2023-07-30T08:50:15;21.80;89.10
80540;DHT22;69869;48.036;15.780;2023-07-30T08:52:41;21.80;88.90
80540;DHT22;69869;48.036;15.780;2023-07-30T08:55:08;21.80;88.80
80540;DHT22;69869;48.036;15.780;2023-07-30T08:57:34;21.80;88.80
80540;DHT22;69869;48.036;15.780;2023-07-30T09:00:08;21.80;89.20
80540;DHT22;69869;48.036;15.780;2023-07-30T09:02:54;21.80;88.80
80540;DHT22;69869;48.036;15.780;2023-07-30T09:05:21;21.90;88.90
80540;DHT22;69869;48.036;15.780;2023-07-30T09:07:48;21.80;88.80
80540;DHT22;69869;48.036;15.780;2023-07-30T09:10:14;21.90;89.50
80540;DHT22;69869;48.036;15.780;2023-07-30T09:12:40;21.80;88.70
80540;DHT22;69869;48.036;15.780;2023-07-30T09:15:07;21.90;88.60
80540;DHT22;69869;48.036;15.780;2023-07-30T09:17:37;21.90;88.60
80540;DHT22;69869;48.036;15.780;2023-07-30T09:20:03;21.90;88.40
80540;DHT22;69869;48.036;15.780;2023-07-30T09:22:32;21.80;88.20
80540;DHT22;69869;48.036;15.780;2023-07-30T09:25:08;21.80;88.30
80540;DHT22;69869;48.036;15.780;2023-07-30T09:27:34;21.80;88.50
80540;DHT22;69869;48.036;15.780;2023-07-30T09:30:01;21.80;88.30
80540;DHT22;69869;48.036;15.780;2023-07-30T09:32:29;21.90;88.70
80540;DHT22;69869;48.036;15.780;2023-07-30T09:34:55;21.80;88.40
80540;DHT22;69869;48.036;15.780;2023-07-30T09:37:21;21.80;88.20
80540;DHT22;69869;48.036;15.780;2023-07-30T09:39:50;21.90;88.50
80540;DHT22;69869;48.036;15.780;2023-07-30T09:42:15;21.80;88.00
80540;DHT22;69869;48.036;15.780;2023-07-30T09:44:41;21.80;88.10
80540;DHT22;69869;48.036;15.780;2023-07-30T09:47:10;21.90;88.40
80540;DHT22;69869;48.036;15.780;2023-07-30T09:49:37;21.90;88.50
80540;DHT22;69869;48.036;15.780;2023-07-30T09:52:04;21.80;88.60
80540;DHT22;69869;48.036;15.780;2023-07-30T09:54:31;21.90;88.70
80540;DHT22;69869;48.036;15.780;2023-07-30T09:56:57;21.90;88.50
80540;DHT22;69869;48.036;15.780;2023-07-30T09:59:26;21.80;88.40
80540;DHT22;69869;48.036;15.780;2023-07-30T10:01:52;21.80;88.50
80540;DHT22;69869;48.036;15.780;2023-07-30T10:04:22;21.80;88.40
80540;DHT22;69869;48.036;15.780;2023-07-30T10:07:01;21.80;88.50
80540;DHT22;69869;48.036;15.780;2023-07-30T10:09:31;21.90;88.90
80540;DHT22;69869;48.036;15.780;2023-07-30T10:12:00;21.90;88.60
80540;DHT22;69869;48.036;15.780;2023-07-30T10:14:27;21.80;88.40
80540;DHT22;69869;48.036;15.780;2023-07-30T10:16:55;21.80;88.40
80540;DHT22;69869;48.036;15.780;2023-07-30T10:19:28;21.90;88.40
80540;DHT22;69869;48.036;15.780;2023-07-30T10:25:04;21.90;88.50
80540;DHT22;69869;48.036;15.780;2023-07-30T10:27:39;21.90;88.30
80540;DHT22;69869;48.036;15.780;2023-07-30T10:30:16;21.90;88.40
80540;DHT22;69869;48.036;15.780;2023-07-30T10:33:01;21.90;88.00
80540;DHT22;69869;48.036;15.780;2023-07-30T10:35:43;21.90;88.60
80540;DHT22;69869;48.036;15.780;2023-07-30T10:40:41;21.90;87.90
80540;DHT22;69869;48.036;15.780;2023-07-30T10:43:16;21.90;88.60
80540;DHT22;69869;48.036;15.780;2023-07-30T10:45:52;21.90;88.10
80540;DHT22;69869;48.036;15.780;2023-07-30T10:48:17;21.90;87.30
80540;DHT22;69869;48.036;15.780;2023-07-30T10:50:43;21.90;87.40
80540;DHT22;69869;48.036;15.780;2023-07-30T10:53:14;21.90;87.50
80540;DHT22;69869;48.036;15.780;2023-07-30T10:55:42;21.90;87.40
80540;DHT22;69869;48.036;15.780;2023-07-30T10:58:08;21.90;86.90
80540;DHT22;69869;48.036;15.780;2023-07-30T11:00:33;21.90;87.30
80540;DHT22;69869;48.036;15.780;2023-07-30T11:02:59;21.90;87.30
80540;DHT22;69869;48.036;15.780;2023-07-30T11:05:24;21.90;87.40
80540;DHT22;69869;48.036;15.780;2023-07-30T11:07:51;21.90;87.00
80540;DHT22;69869;48.036;15.780;2023-07-30T11:10:18;21.90;86.90
80540;DHT22;69869;48.036;15.780;2023-07-30T11:59:48;21.90;86.10
80540;DHT22;69869;48.036;15.780;2023-07-30T12:02:17;21.90;86.10
80540;DHT22;69869;48.036;15.780;2023-07-30T12:04:44;21.90;86.00
80540;DHT22;69869;48.036;15.780;2023-07-30T12:07:10;21.90;85.90
80540;DHT22;69869;48.036;15.780;2023-07-30T12:09:36;21.90;86.40
80540;DHT22;69869;48.036;15.780;2023-07-30T12:12:03;21.90;86.30
80540;DHT22;69869;48.036;15.780;2023-07-30T12:30:01;21.90;86.60
80540;DHT22;69869;48.036;15.780;2023-07-30T12:32:27;21.90;86.30
80540;DHT22;69869;48.036;15.780;2023-07-30T12:34:54;21.90;86.80
80540;DHT22;69869;48.036;15.780;2023-07-30T12:37:21;21.90;86.70
80540;DHT22;69869;48.036;15.780;2023-07-30T12:39:46;21.90;86.30
80540;DHT22;69869;48.036;15.780;2023-07-30T12:42:12;21.90;86.80
80540;DHT22;69869;48.036;15.780;2023-07-30T12:44:37;21.90;86.60
80540;DHT22;69869;48.036;15.780;2023-07-30T12:47:04;21.90;86.60
80540;DHT22;69869;48.036;15.780;2023-07-30T12:49:29;21.90;86.90
80540;DHT22;69869;48.036;15.780;2023-07-30T12:51:55;21.90;86.70
80540;DHT22;69869;48.036;15.780;2023-07-30T12:54:21;21.90;86.70
80540;DHT22;69869;48.036;15.780;2023-07-30T12:56:47;21.90;87.00
80540;DHT22;69869;48.036;15.780;2023-07-30T12:59:12;21.90;86.90
80540;DHT22;69869;48.036;15.780;2023-07-30T13:01:38;21.90;86.60
80540;DHT22;69869;48.036;15.780;2023-07-30T13:04:04;21.90;86.80
80540;DHT22;69869;48.036;15.780;2023-07-30T13:06:29;21.90;86.80
80540;DHT22;69869;48.036;15.780;2023-07-30T13:08:55;21.90;86.30
80540;DHT22;69869;48.036;15.780;2023-07-30T13:11:20;21.90;86.20
80540;DHT22;69869;48.036;15.780;2023-07-30T13:13:46;21.90;86.50
80540;DHT22;69869;48.036;15.780;2023-07-30T13:16:12;21.90;86.40
80540;DHT22;69869;48.036;15.780;2023-07-30T13:18:37;22.00;86.40
80540;DHT22;69869;48.036;15.780;2023-07-30T13:21:03;22.00;86.40
80540;DHT22;69869;48.036;15.780;2023-07-30T13:23:29;22.00;86.50
80540;DHT22;69869;48.036;15.780;2023-07-30T13:25:55;21.90;86.50
80540;DHT22;69869;48.036;15.780;2023-07-30T13:28:21;21.90;86.30
80540;DHT22;69869;48.036;15.780;2023-07-30T13:30:47;21.90;87.50
80540;DHT22;69869;48.036;15.780;2023-07-30T13:33:12;21.90;86.40
80540;DHT22;69869;48.036;15.780;2023-07-30T13:35:38;21.90;86.70
80540;DHT22;69869;48.036;15.780;2023-07-30T13:38:04;21.90;86.40
80540;DHT22;69869;48.036;15.780;2023-07-30T13:40:29;21.90;86.30
80540;DHT22;69869;48.036;15.780;2023-07-30T13:42:55;22.00;86.20
80540;DHT22;69869;48.036;15.780;2023-07-30T13:45:20;21.90;86.90
80540;DHT22;69869;48.036;15.780;2023-07-30T13:47:46;21.90;86.30
80540;DHT22;69869;48.036;15.780;2023-07-30T13:50:12;21.90;86.70
80540;DHT22;69869;48.036;15.780;2023-07-30T13:52:37;21.90;86.60
80540;DHT22;69869;48.036;15.780;2023-07-30T13:55:03;21.90;86.60
80540;DHT22;69869;48.036;15.780;2023-07-30T13:57:29;21.90;86.40
80540;DHT22;69869;48.036;15.780;2023-07-30T13:59:55;21.90;86.50
80540;DHT22;69869;48.036;15.780;2023-07-30T14:02:20;21.90;85.60
80540;DHT22;69869;48.036;15.780;2023-07-30T14:04:46;21.90;85.70
80540;DHT22;69869;48.036;15.780;2023-07-30T14:07:12;21.90;86.50
80540;DHT22;69869;48.036;15.780;2023-07-30T14:09:37;21.90;86.20
80540;DHT22;69869;48.036;15.780;2023-07-30T14:12:03;21.90;86.10
80540;DHT22;69869;48.036;15.780;2023-07-30T14:14:29;21.90;86.10
80540;DHT22;69869;48.036;15.780;2023-07-30T14:16:55;21.90;85.90
80540;DHT22;69869;48.036;15.780;2023-07-30T14:19:21;21.90;86.10
80540;DHT22;69869;48.036;15.780;2023-07-30T14:21:47;21.90;85.70
80540;DHT22;69869;48.036;15.780;2023-07-30T14:24:12;21.90;86.50
80540;DHT22;69869;48.036;15.780;2023-07-30T14:26:40;21.90;86.10
80540;DHT22;69869;48.036;15.780;2023-07-30T14:29:06;21.90;86.50
80540;DHT22;69869;48.036;15.780;2023-07-30T14:31:31;21.90;86.60
80540;DHT22;69869;48.036;15.780;2023-07-30T14:33:57;21.90;85.60
80540;DHT22;69869;48.036;15.780;2023-07-30T14:36:23;21.90;85.90
80540;DHT22;69869;48.036;15.780;2023-07-30T14:38:49;21.90;85.80
80540;DHT22;69869;48.036;15.780;2023-07-30T14:41:14;22.00;86.10
80540;DHT22;69869;48.036;15.780;2023-07-30T14:43:41;22.00;85.80
80540;DHT22;69869;48.036;15.780;2023-07-30T14:46:06;22.00;85.70
80540;DHT22;69869;48.036;15.780;2023-07-30T14:48:39;22.00;85.90
80540;DHT22;69869;48.036;15.780;2023-07-30T14:51:05;22.10;85.80
80540;DHT22;69869;48.036;15.780;2023-07-30T14:53:30;22.10;85.50
80540;DHT22;69869;48.036;15.780;2023-07-30T14:55:56;22.10;85.60
80540;DHT22;69869;48.036;15.780;2023-07-30T14:58:22;22.10;85.30
80540;DHT22;69869;48.036;15.780;2023-07-30T15:00:47;22.10;85.40
80540;DHT22;69869;48.036;15.780;2023-07-30T15:03:13;22.10;85.30
80540;DHT22;69869;48.036;15.780;2023-07-30T15:05:39;22.10;85.70
80540;DHT22;69869;48.036;15.780;2023-07-30T15:08:04;22.10;85.70
80540;DHT22;69869;48.036;15.780;2023-07-30T15:10:30;22.10;85.70
80540;DHT22;69869;48.036;15.780;2023-07-30T15:12:56;22.10;85.80
80540;DHT22;69869;48.036;15.780;2023-07-30T15:15:21;22.00;85.20
80540;DHT22;69869;48.036;15.780;2023-07-30T15:17:47;22.00;85.60
80540;DHT22;69869;48.036;15.780;2023-07-30T15:20:16;22.00;86.00
80540;DHT22;69869;48.036;15.780;2023-07-30T15:22:41;22.00;85.40
80540;DHT22;69869;48.036;15.780;2023-07-30T15:25:07;22.00;85.60
80540;DHT22;69869;48.036;15.780;2023-07-30T15:27:33;22.00;86.00
80540;DHT22;69869;48.036;15.780;2023-07-30T15:29:58;22.00;85.20
80540;DHT22;69869;48.036;15.780;2023-07-30T15:32:24;22.00;85.30
80540;DHT22;69869;48.036;15.780;2023-07-30T15:34:50;22.00;85.50
80540;DHT22;69869;48.036;15.780;2023-07-30T15:37:15;22.00;85.60
80540;DHT22;69869;48.036;15.780;2023-07-30T15:39:41;22.00;85.80
80540;DHT22;69869;48.036;15.780;2023-07-30T15:42:07;22.00;86.10
80540;DHT22;69869;48.036;15.780;2023-07-30T15:44:32;22.00;86.10
80540;DHT22;69869;48.036;15.780;2023-07-30T15:46:58;22.00;86.20
80540;DHT22;69869;48.036;15.780;2023-07-30T15:49:24;22.00;86.20
80540;DHT22;69869;48.036;15.780;2023-07-30T15:51:50;22.00;85.80
80540;DHT22;69869;48.036;15.780;2023-07-30T15:54:16;22.00;86.10
80540;DHT22;69869;48.036;15.780;2023-07-30T15:56:42;22.00;86.10
80540;DHT22;69869;48.036;15.780;2023-07-30T15:59:08;22.00;86.20
80540;DHT22;69869;48.036;15.780;2023-07-30T16:01:37;22.00;86.50
80540;DHT22;69869;48.036;15.780;2023-07-30T16:04:03;22.00;86.40
80540;DHT22;69869;48.036;15.780;2023-07-30T16:06:29;22.00;86.70
80540;DHT22;69869;48.036;15.780;2023-07-30T16:08:55;22.00;86.30
80540;DHT22;69869;48.036;15.780;2023-07-30T16:11:20;22.00;85.70
80540;DHT22;69869;48.036;15.780;2023-07-30T16:13:47;22.00;85.90
80540;DHT22;69869;48.036;15.780;2023-07-30T16:16:15;22.00;85.50
80540;DHT22;69869;48.036;15.780;2023-07-30T16:18:43;22.00;85.30
80540;DHT22;69869;48.036;15.780;2023-07-30T16:21:10;22.00;85.70
80540;DHT22;69869;48.036;15.780;2023-07-30T16:23:36;22.00;86.70
80540;DHT22;69869;48.036;15.780;2023-07-30T16:26:02;22.00;85.50
80540;DHT22;69869;48.036;15.780;2023-07-30T16:28:28;22.00;85.50
80540;DHT22;69869;48.036;15.780;2023-07-30T16:30:54;22.00;85.20
80540;DHT22;69869;48.036;15.780;2023-07-30T16:33:20;22.00;85.70
80540;DHT22;69869;48.036;15.780;2023-07-30T16:35:48;22.00;85.50
80540;DHT22;69869;48.036;15.780;2023-07-30T16:38:17;22.00;85.70
80540;DHT22;69869;48.036;15.780;2023-07-30T16:40:43;22.00;86.00
80540;DHT22;69869;48.036;15.780;2023-07-30T16:43:09;22.00;85.50
80540;DHT22;69869;48.036;15.780;2023-07-30T16:45:35;22.00;85.70
80540;DHT22;69869;48.036;15.780;2023-07-30T16:48:01;22.00;85.40
80540;DHT22;69869;48.036;15.780;2023-07-30T16:50:26;22.00;85.00
80540;DHT22;69869;48.036;15.780;2023-07-30T16:52:52;22.00;85.70
80540;DHT22;69869;48.036;15.780;2023-07-30T16:55:18;22.00;85.50
80540;DHT22;69869;48.036;15.780;2023-07-30T16:57:43;22.00;86.00
80540;DHT22;69869;48.036;15.780;2023-07-30T17:00:09;22.00;85.30
80540;DHT22;69869;48.036;15.780;2023-07-30T17:02:35;22.00;86.30
80540;DHT22;69869;48.036;15.780;2023-07-30T17:05:01;22.00;85.70
80540;DHT22;69869;48.036;15.780;2023-07-30T17:07:26;22.00;85.80
80540;DHT22;69869;48.036;15.780;2023-07-30T17:09:52;22.00;85.80
80540;DHT22;69869;48.036;15.780;2023-07-30T17:12:18;22.00;85.80